Time;durP1;ratioP1;P1;durP2;ratioP2;P2;SDS_P1;SDS_P2;PMS_P1;PMS_P2;Temp;Humidity;BMP_temperature;BMP_pressure;BME280_temperature;BME280_humidity;BME280_pressure;Samples;Min_cycle;Max_cycle;Signal;HPM_P1;HPM_P2
2022/03/15 00:00:15;;;;;;;11.65;4.95;;;;;;;4.12;90.71;99942.56;4990606;28;20018;-71
2022/03/15 00:02:40;;;;;;;12.77;4.57;;;;;;;4.07;90.27;99928.72;4987337;28;20069;-72
2022/03/15 00:05:06;;;;;;;20.70;7.45;;;;;;;3.97;88.12;99933.19;4984448;28;20034;-70
2022/03/15 00:07:31;;;;;;;17.83;7.57;;;;;;;3.97;87.35;99954.63;4992399;28;20108;-72
2022/03/15 00:10:00;;;;;;;17.02;7.50;;;;;;;3.85;86.31;99953.81;4994090;28;20137;-72
2022/03/15 00:12:25;;;;;;;13.77;7.72;;;;;;;3.70;87.41;99951.50;4990210;28;20088;-72
2022/03/15 00:14:52;;;;;;;15.05;7.95;;;;;;;3.63;88.28;99958.34;4984454;28;20025;-72
2022/03/15 00:17:18;;;;;;;16.23;7.43;;;;;;;3.32;89.76;99932.50;4991251;28;20018;-72
2022/03/15 00:19:43;;;;;;;13.77;6.30;;;;;;;3.42;90.83;99950.31;4989839;28;20104;-71
2022/03/15 00:22:10;;;;;;;13.05;4.97;;;;;;;3.36;91.73;99945.50;4989157;28;20066;-72
2022/03/15 00:24:35;;;;;;;8.18;4.40;;;;;;;3.50;90.81;99957.69;4982339;28;20116;-71
2022/03/15 00:27:01;;;;;;;11.10;4.45;;;;;;;3.36;92.87;99939.28;4981977;28;20120;-69
2022/03/15 00:29:26;;;;;;;8.63;3.85;;;;;;;3.36;93.44;99939.28;4983448;28;20049;-72
2022/03/15 00:31:52;;;;;;;8.15;3.85;;;;;;;3.57;93.82;99950.84;4981845;28;20041;-72
2022/03/15 00:34:17;;;;;;;10.52;3.95;;;;;;;3.65;92.81;99951.03;4984509;28;20030;-72
2022/03/15 00:36:43;;;;;;;11.20;4.03;;;;;;;3.58;92.30;99923.09;4993761;28;20022;-71
2022/03/15 00:39:08;;;;;;;9.80;3.95;;;;;;;3.91;92.12;99940.78;4991913;28;20406;-70
2022/03/15 00:41:34;;;;;;;9.57;4.50;;;;;;;3.99;91.32;99944.63;4987906;28;20038;-72
2022/03/15 00:44:00;;;;;;;7.95;3.92;;;;;;;3.90;90.93;99901.59;4982466;28;20034;-70
2022/03/15 00:46:26;;;;;;;8.68;3.80;;;;;;;4.06;91.01;99937.72;5004953;28;20505;-72
2022/03/15 00:48:51;;;;;;;8.00;3.95;;;;;;;3.92;91.28;99942.47;5004871;28;20030;-72
2022/03/15 00:51:17;;;;;;;9.98;4.25;;;;;;;3.80;91.86;99916.78;4996142;28;20113;-72
2022/03/15 00:53:42;;;;;;;7.43;3.75;;;;;;;3.72;91.93;99904.03;4985577;28;20521;-72
2022/03/15 00:56:07;;;;;;;9.55;3.95;;;;;;;3.86;91.54;99937.66;4982862;28;20044;-72
2022/03/15 00:58:33;;;;;;;9.10;4.47;;;;;;;3.68;91.90;99899.94;4985111;28;20022;-72
2022/03/15 01:00:58;;;;;;;8.32;3.95;;;;;;;3.71;90.71;99913.03;4993429;28;20105;-73
2022/03/15 01:03:24;;;;;;;7.13;3.80;;;;;;;3.62;91.69;99908.50;4974049;28;20050;-72
2022/03/15 01:05:50;;;;;;;11.98;4.43;;;;;;;3.63;91.92;99894.13;4974279;28;20085;-72
2022/03/15 01:08:16;;;;;;;9.35;4.47;;;;;;;3.89;91.75;99913.28;4985341;28;20559;-72
2022/03/15 01:10:42;;;;;;;13.18;4.85;;;;;;;3.98;91.58;99919.66;4993254;28;20026;-71
2022/03/15 01:13:08;;;;;;;8.95;4.53;;;;;;;3.78;91.43;99924.06;4993048;28;20069;-72
2022/03/15 01:15:41;;;;;;;13.48;4.13;;;;;;;3.78;92.27;99909.84;4990084;28;20124;-72
2022/03/15 01:18:07;;;;;;;12.10;4.70;;;;;;;3.60;92.33;99870.31;4981390;28;20022;-72
2022/03/15 01:20:32;;;;;;;9.05;4.72;;;;;;;3.88;91.91;99892.00;4977926;28;20152;-70
2022/03/15 01:22:57;;;;;;;10.75;4.95;;;;;;;3.78;92.55;99901.81;4982496;28;20030;-71
2022/03/15 01:25:22;;;;;;;8.68;4.75;;;;;;;3.82;91.90;99896.03;4981218;28;20033;-72
2022/03/15 01:27:48;;;;;;;9.77;4.43;;;;;;;3.65;92.74;99885.97;4991420;28;20537;-71
2022/03/15 01:30:13;;;;;;;8.00;4.38;;;;;;;3.79;93.05;99903.50;4991509;28;20472;-72
2022/03/15 01:32:39;;;;;;;7.13;4.55;;;;;;;3.64;92.60;99874.44;4993069;28;20058;-72
2022/03/15 01:35:05;;;;;;;10.90;4.70;;;;;;;3.58;93.19;99858.03;4985273;28;20022;-72
2022/03/15 01:37:30;;;;;;;10.68;5.05;;;;;;;3.67;93.18;99892.03;4985256;28;20053;-71
2022/03/15 01:39:55;;;;;;;8.70;4.53;;;;;;;3.59;92.95;99871.31;4990705;28;20022;-72
2022/03/15 01:42:21;;;;;;;9.77;4.70;;;;;;;3.63;92.60;99886.09;4977022;28;20027;-72
2022/03/15 01:44:48;;;;;;;9.35;4.47;;;;;;;3.62;93.18;99900.47;4992729;28;20061;-73
2022/03/15 01:47:13;;;;;;;6.88;4.10;;;;;;;3.63;91.83;99894.13;4996636;28;20050;-72
2022/03/15 01:49:39;;;;;;;9.90;4.57;;;;;;;3.55;91.87;99871.69;4995942;28;20085;-70
2022/03/15 01:52:05;;;;;;;11.85;4.45;;;;;;;3.61;92.73;99876.50;5004627;28;20030;-72
2022/03/15 01:54:31;;;;;;;6.88;4.00;;;;;;;3.57;92.92;99875.09;5008855;28;20022;-71
2022/03/15 01:56:56;;;;;;;8.65;4.53;;;;;;;3.71;93.25;99880.06;4992457;28;20114;-72
2022/03/15 01:59:22;;;;;;;8.30;4.28;;;;;;;3.47;92.95;99824.19;4996500;28;20026;-72
2022/03/15 02:01:47;;;;;;;8.82;4.47;;;;;;;3.83;93.08;99873.66;5000291;28;20041;-70
2022/03/15 02:04:13;;;;;;;11.40;4.45;;;;;;;3.83;93.15;99872.81;4989046;28;20030;-72
2022/03/15 02:06:41;;;;;;;8.77;3.95;;;;;;;3.86;93.01;99865.38;4986797;28;20034;-72
2022/03/15 02:09:12;;;;;;;11.00;4.20;;;;;;;3.91;92.45;99854.25;4985403;28;20178;-70
2022/03/15 02:11:37;;;;;;;10.77;4.28;;;;;;;3.97;92.52;99848.34;4987775;28;20446;-72
2022/03/15 02:14:04;;;;;;;11.80;4.38;;;;;;;4.01;92.01;99855.16;4999311;28;20018;-72
2022/03/15 02:16:29;;;;;;;11.85;4.70;;;;;;;3.86;91.81;99838.59;4995641;28;20064;-72
2022/03/15 02:18:58;;;;;;;7.10;3.90;;;;;;;3.86;90.02;99861.84;4994058;28;20481;-72
2022/03/15 02:21:24;;;;;;;8.48;4.30;;;;;;;3.69;90.83;99856.16;4992168;28;20042;-73
2022/03/15 02:23:49;;;;;;;7.45;4.28;;;;;;;3.65;91.76;99870.75;4989207;28;20022;-71
2022/03/15 02:26:16;;;;;;;9.73;3.17;;;;;;;3.58;92.53;99874.94;4987270;28;20038;-72
2022/03/15 02:28:42;;;;;;;10.43;3.38;;;;;;;3.51;92.56;99871.09;4986703;28;20033;-70
2022/03/15 02:31:08;;;;;;;10.73;3.55;;;;;;;3.33;93.47;99849.47;4994164;28;20066;-69
2022/03/15 02:33:33;;;;;;;8.38;4.15;;;;;;;3.43;93.66;99866.41;4990829;28;20120;-69
2022/03/15 02:35:59;;;;;;;9.52;4.40;;;;;;;3.28;94.11;99841.81;4975538;28;20569;-70
2022/03/15 02:38:24;;;;;;;13.25;3.92;;;;;;;3.36;94.24;99838.50;4988807;28;20581;-69
2022/03/15 02:40:49;;;;;;;6.32;2.65;;;;;;;3.43;94.46;99834.31;4986737;28;20027;-70
2022/03/15 02:43:15;;;;;;;5.00;2.60;;;;;;;3.45;93.76;99818.13;4976866;28;20063;-70
2022/03/15 02:45:40;;;;;;;5.40;2.60;;;;;;;3.63;93.53;99848.63;4982563;28;20029;-69
2022/03/15 02:48:05;;;;;;;5.03;2.47;;;;;;;3.65;93.81;99844.00;4978438;28;20033;-70
2022/03/15 02:50:31;;;;;;;8.48;2.60;;;;;;;3.81;93.13;99845.34;4987835;28;20038;-70
2022/03/15 02:52:56;;;;;;;3.35;2.13;;;;;;;3.72;92.21;99814.84;4993379;28;20474;-70
2022/03/15 02:55:21;;;;;;;6.60;2.58;;;;;;;3.84;92.71;99842.38;4988077;28;20733;-70
2022/03/15 02:57:48;;;;;;;17.50;3.70;;;;;;;3.83;92.57;99854.09;4985792;28;20022;-70
2022/03/15 03:00:15;;;;;;;7.38;3.20;;;;;;;3.88;92.75;99849.19;4990988;28;20562;-71
2022/03/15 03:02:41;;;;;;;7.63;3.42;;;;;;;3.76;92.96;99839.53;4992939;28;20097;-71
2022/03/15 03:05:06;;;;;;;8.80;3.70;;;;;;;3.59;93.47;99815.09;4987597;28;20023;-71
2022/03/15 03:07:34;;;;;;;7.97;3.95;;;;;;;3.79;93.44;99836.59;4990115;28;20026;-71
2022/03/15 03:10:00;;;;;;;8.63;4.40;;;;;;;3.79;93.34;99839.25;4983165;28;20022;-71
2022/03/15 03:12:26;;;;;;;12.75;4.82;;;;;;;3.83;93.01;99830.00;4986081;28;20038;-70
2022/03/15 03:14:52;;;;;;;9.57;5.18;;;;;;;4.02;92.59;99837.25;4994423;28;20033;-71
2022/03/15 03:17:18;;;;;;;8.63;4.63;;;;;;;3.71;92.55;99800.63;4985339;28;20034;-70
2022/03/15 03:19:44;;;;;;;10.93;5.10;;;;;;;3.90;92.55;99837.34;4989192;28;20057;-70
2022/03/15 03:22:10;;;;;;;14.20;5.13;;;;;;;3.88;92.87;99833.13;4994642;28;20026;-70
2022/03/15 03:24:35;;;;;;;11.00;4.90;;;;;;;3.86;92.78;99805.63;4984450;28;20094;-70
2022/03/15 03:27:01;;;;;;;10.60;5.85;;;;;;;4.02;91.57;99814.00;4978140;28;20375;-70
2022/03/15 03:29:28;;;;;;;10.57;5.60;;;;;;;4.17;91.81;99833.22;4982263;28;20037;-71
2022/03/15 03:31:54;;;;;;;11.10;6.38;;;;;;;3.99;91.71;99840.19;4991091;28;20022;-70
2022/03/15 03:34:20;;;;;;;10.27;5.55;;;;;;;4.11;91.76;99839.97;4991740;28;20026;-70
2022/03/15 03:36:45;;;;;;;10.13;4.72;;;;;;;3.93;91.34;99804.94;4996574;28;20037;-71
2022/03/15 03:39:11;;;;;;;10.27;4.80;;;;;;;3.86;92.11;99802.94;4995027;28;20132;-70
2022/03/15 03:41:37;;;;;;;12.02;5.93;;;;;;;3.79;92.25;99804.47;4998686;28;20151;-70
2022/03/15 03:44:02;;;;;;;16.25;5.38;;;;;;;3.70;92.36;99795.44;5000333;28;20029;-69
2022/03/15 03:46:28;;;;;;;9.57;4.75;;;;;;;3.72;92.23;99780.94;5008944;28;20513;-71
2022/03/15 03:48:54;;;;;;;10.32;4.78;;;;;;;3.92;92.79;99808.59;5003194;28;20322;-70
2022/03/15 03:51:20;;;;;;;9.27;4.80;;;;;;;3.93;92.94;99807.63;5011045;28;20033;-70
2022/03/15 03:53:45;;;;;;;13.65;5.22;;;;;;;4.13;93.21;99810.34;5010779;28;20030;-70
2022/03/15 03:56:11;;;;;;;9.88;4.88;;;;;;;4.06;92.79;99802.03;5007726;28;20038;-70
2022/03/15 03:58:36;;;;;;;10.45;4.10;;;;;;;4.04;91.62;99782.56;5007433;28;20482;-70
2022/03/15 04:01:02;;;;;;;6.03;4.20;;;;;;;3.90;92.70;99756.16;4982266;28;20038;-72
2022/03/15 04:03:29;;;;;;;7.55;4.22;;;;;;;4.04;93.33;99779.06;4992338;28;20034;-70
2022/03/15 04:05:56;;;;;;;7.50;4.07;;;;;;;3.98;92.26;99792.97;4982761;28;20042;-70
2022/03/15 04:08:22;;;;;;;8.65;4.00;;;;;;;3.65;92.10;99782.44;4988077;28;20081;-70
2022/03/15 04:10:48;;;;;;;9.93;4.53;;;;;;;3.60;92.96;99791.88;4994962;28;20014;-71
2022/03/15 04:13:18;;;;;;;7.40;4.38;;;;;;;3.59;94.33;99780.31;4990414;28;20403;-69
2022/03/15 04:15:44;;;;;;;7.97;3.67;;;;;;;3.35;93.53;99750.34;4984199;28;20041;-72
2022/03/15 04:18:10;;;;;;;6.78;3.90;;;;;;;3.66;94.32;99792.16;5011558;23;20038;-69
2022/03/15 04:20:36;;;;;;;6.97;3.80;;;;;;;3.41;93.72;99781.94;5003940;28;20040;-69
2022/03/15 04:23:02;;;;;;;7.85;3.97;;;;;;;3.46;94.86;99779.69;4994064;28;20038;-69
2022/03/15 04:25:27;;;;;;;5.85;3.78;;;;;;;3.45;95.29;99781.50;4964610;28;20111;-69
2022/03/15 04:27:56;;;;;;;5.28;3.22;;;;;;;3.49;94.58;99790.13;4981776;28;20038;-69
2022/03/15 04:30:22;;;;;;;5.20;3.22;;;;;;;3.50;94.69;99781.09;4994801;28;20026;-69
2022/03/15 04:32:47;;;;;;;8.25;3.80;;;;;;;3.53;95.13;99774.66;4991665;28;20030;-68
2022/03/15 04:35:13;;;;;;;6.78;3.95;;;;;;;3.49;95.98;99768.72;4982284;28;20031;-69
2022/03/15 04:37:39;;;;;;;5.53;3.45;;;;;;;3.42;95.58;99765.72;4993002;28;20152;-69
2022/03/15 04:40:07;;;;;;;7.75;3.35;;;;;;;3.51;95.53;99780.13;5001919;28;20438;-69
2022/03/15 04:42:32;;;;;;;6.13;3.10;;;;;;;3.53;96.26;99777.31;4983674;28;20034;-69
2022/03/15 04:44:57;;;;;;;4.85;2.63;;;;;;;3.57;95.63;99787.63;4992856;28;20033;-69
2022/03/15 04:47:23;;;;;;;4.43;2.80;;;;;;;3.51;95.48;99780.13;4988422;28;20031;-72
2022/03/15 04:49:48;;;;;;;9.05;3.47;;;;;;;3.49;95.48;99776.75;4979685;28;20131;-72
2022/03/15 04:52:14;;;;;;;6.88;3.65;;;;;;;3.42;95.23;99765.72;4989841;28;20037;-72
2022/03/15 04:54:40;;;;;;;7.45;3.85;;;;;;;3.37;95.51;99753.75;4981980;28;20030;-74
2022/03/15 04:57:05;;;;;;;7.60;3.83;;;;;;;3.45;95.52;99769.97;4972620;28;20096;-73
2022/03/15 04:59:30;;;;;;;12.95;4.45;;;;;;;3.42;95.93;99767.56;4982816;28;20504;-75
2022/03/15 05:01:56;;;;;;;7.65;3.95;;;;;;;3.47;96.20;99754.63;4973879;28;20053;-76
2022/03/15 05:04:21;;;;;;;9.18;4.35;;;;;;;3.66;96.10;99756.53;4983815;28;21242;-75
2022/03/15 05:06:46;;;;;;;9.40;4.25;;;;;;;3.56;95.87;99729.72;4983064;28;20045;-73
2022/03/15 05:09:12;;;;;;;8.65;4.45;;;;;;;3.70;95.86;99739.22;4988476;28;20041;-76
2022/03/15 05:11:38;;;;;;;6.53;3.83;;;;;;;3.79;95.33;99769.66;4976519;28;20038;-76
2022/03/15 05:14:03;;;;;;;9.50;4.28;;;;;;;3.88;94.89;99774.22;4975452;28;20030;-77
2022/03/15 05:16:29;;;;;;;11.80;4.03;;;;;;;3.98;95.16;99779.59;4987536;28;20037;-78
2022/03/15 05:18:54;;;;;;;6.68;4.13;;;;;;;3.95;94.21;99764.63;4981752;28;20104;-74
2022/03/15 05:21:23;;;;;;;6.75;4.70;;;;;;;4.12;94.07;99766.66;4984768;28;20117;-73
2022/03/15 05:23:49;;;;;;;11.35;5.07;;;;;;;4.03;93.69;99745.22;4985846;28;20038;-75
2022/03/15 05:26:16;;;;;;;11.32;5.53;;;;;;;4.09;93.89;99752.72;4970875;28;20501;-75
2022/03/15 05:28:43;;;;;;;20.40;12.27;;;;;;;4.20;93.51;99773.16;4972509;28;20034;-78
2022/03/15 05:31:09;;;;;;;8.88;5.15;;;;;;;4.18;93.34;99770.59;4960440;28;20065;-77
2022/03/15 05:33:35;;;;;;;10.32;4.72;;;;;;;4.20;93.33;99773.16;4989325;28;20053;-72
2022/03/15 05:36:00;;;;;;;14.43;5.50;;;;;;;4.02;93.34;99730.97;4991708;28;20100;-75
2022/03/15 05:38:26;;;;;;;8.85;5.03;;;;;;;4.18;92.95;99750.03;4994351;28;20461;-75
2022/03/15 05:40:51;;;;;;;11.82;6.03;;;;;;;4.37;92.23;99764.41;4988159;28;20030;-76
2022/03/15 05:43:19;;;;;;;9.00;4.35;;;;;;;4.40;92.70;99764.13;4975957;28;20026;-74
2022/03/15 05:45:44;;;;;;;8.82;4.78;;;;;;;4.41;92.68;99767.69;4990651;28;20417;-72
2022/03/15 05:48:10;;;;;;;8.93;4.90;;;;;;;4.37;92.95;99754.53;4991782;28;20030;-75
2022/03/15 05:50:35;;;;;;;7.80;4.32;;;;;;;4.34;92.82;99756.66;4986479;28;20054;-76
2022/03/15 05:53:04;;;;;;;6.80;4.63;;;;;;;4.35;93.04;99756.53;4985314;28;20038;-76
2022/03/15 05:55:31;;;;;;;8.25;4.63;;;;;;;4.59;91.89;99758.78;4968301;28;20026;-75
2022/03/15 05:57:57;;;;;;;9.18;3.95;;;;;;;4.67;91.03;99754.56;4983104;28;20402;-74
2022/03/15 06:00:23;;;;;;;12.40;5.07;;;;;;;4.68;90.35;99756.25;4987324;28;21909;-74
2022/03/15 06:02:48;;;;;;;10.52;4.35;;;;;;;4.57;91.34;99757.25;4975063;28;20042;-74
2022/03/15 06:05:14;;;;;;;11.02;4.82;;;;;;;4.44;91.45;99748.66;4988977;28;20026;-75
2022/03/15 06:07:47;;;;;;;10.00;5.18;;;;;;;4.59;91.63;99766.00;4998948;28;20022;-76
2022/03/15 06:10:13;;;;;;;11.55;5.05;;;;;;;4.63;91.13;99770.06;4965630;28;20128;-70
2022/03/15 06:12:38;;;;;;;11.88;5.07;;;;;;;4.41;91.10;99755.13;4983918;28;20027;-73
2022/03/15 06:15:04;;;;;;;9.40;5.13;;;;;;;4.34;92.32;99764.72;4991517;28;20034;-75
2022/03/15 06:17:31;;;;;;;9.02;5.38;;;;;;;4.38;92.66;99752.72;4976452;28;20512;-75
2022/03/15 06:19:57;;;;;;;8.80;4.88;;;;;;;4.51;92.42;99777.41;4988684;28;20041;-75
2022/03/15 06:22:22;;;;;;;11.35;5.60;;;;;;;4.68;92.13;99769.66;4990766;28;20018;-73
2022/03/15 06:24:48;;;;;;;11.35;5.10;;;;;;;4.77;90.97;99747.38;4991833;28;20359;-80
2022/03/15 06:27:13;;;;;;;15.45;4.50;;;;;;;4.99;89.25;99765.81;4978871;28;20100;-74
2022/03/15 06:29:38;;;;;;;14.70;4.97;;;;;;;4.83;89.36;99749.47;4967691;28;20473;-74
2022/03/15 06:32:04;;;;;;;9.15;4.80;;;;;;;4.99;89.15;99756.91;4971917;28;20042;-76
2022/03/15 06:34:29;;;;;;;9.07;4.53;;;;;;;5.05;88.68;99743.75;4984686;28;20019;-76
2022/03/15 06:36:55;;;;;;;14.00;5.03;;;;;;;5.11;88.21;99762.94;4992572;28;20473;-76
2022/03/15 06:39:20;;;;;;;7.85;4.80;;;;;;;5.23;88.62;99764.47;4995053;28;20125;-77
2022/03/15 06:41:46;;;;;;;12.00;6.20;;;;;;;5.15;87.92;99743.75;4990521;28;20041;-75
2022/03/15 06:44:11;;;;;;;14.10;6.88;;;;;;;5.25;87.71;99759.81;4993712;28;20117;-77
2022/03/15 06:46:37;;;;;;;16.15;8.48;;;;;;;5.36;87.38;99759.63;4974974;28;20034;-77
2022/03/15 06:49:04;;;;;;;17.92;8.50;;;;;;;5.63;86.18;99776.75;4974418;28;20050;-74
2022/03/15 06:51:29;;;;;;;16.45;8.82;;;;;;;5.73;86.20;99769.50;4990837;28;20026;-77
2022/03/15 06:53:54;;;;;;;12.60;7.43;;;;;;;5.90;85.71;99776.78;4991049;28;20032;-76
2022/03/15 06:56:20;;;;;;;12.70;5.38;;;;;;;5.67;85.90;99762.06;4978237;28;20026;-79
2022/03/15 06:58:46;;;;;;;9.25;5.07;;;;;;;5.56;86.57;99756.91;4990042;28;20026;-74
2022/03/15 07:01:12;;;;;;;10.65;4.63;;;;;;;5.75;85.83;99770.22;4990691;28;20058;-74
2022/03/15 07:03:37;;;;;;;9.27;5.13;;;;;;;5.78;85.14;99767.22;4980414;28;20094;-70
2022/03/15 07:06:03;;;;;;;8.57;4.75;;;;;;;5.83;84.45;99767.63;5017264;28;20374;-72
2022/03/15 07:08:29;;;;;;;7.05;4.00;;;;;;;5.86;84.01;99767.34;4991622;28;20034;-76
2022/03/15 07:10:55;;;;;;;6.32;4.20;;;;;;;5.82;84.29;99757.91;4977820;28;20474;-76
2022/03/15 07:13:20;;;;;;;9.07;4.50;;;;;;;5.92;84.96;99758.69;4972684;28;20057;-76
2022/03/15 07:15:46;;;;;;;10.40;4.50;;;;;;;6.02;84.68;99769.38;4995159;28;20028;-78
2022/03/15 07:18:11;;;;;;;8.70;4.80;;;;;;;6.03;84.92;99762.22;4977725;28;20025;-73
2022/03/15 07:20:37;;;;;;;11.40;4.32;;;;;;;6.14;84.13;99743.19;4997003;28;20027;-76
2022/03/15 07:23:02;;;;;;;12.85;5.07;;;;;;;6.17;84.46;99740.19;4996407;28;20038;-78
2022/03/15 07:25:27;;;;;;;9.02;4.78;;;;;;;6.14;83.50;99719.00;4981945;28;20026;-78
2022/03/15 07:27:53;;;;;;;9.23;4.28;;;;;;;6.17;83.63;99726.75;4995187;28;20426;-72
2022/03/15 07:30:19;;;;;;;6.50;4.38;;;;;;;6.43;83.58;99745.66;4979735;28;20018;-73
2022/03/15 07:32:44;;;;;;;12.35;5.07;;;;;;;6.43;83.14;99728.69;4971743;28;20026;-75
2022/03/15 07:35:09;;;;;;;11.25;4.80;;;;;;;6.47;82.98;99724.66;4975237;28;20109;-76
2022/03/15 07:37:35;;;;;;;8.32;4.85;;;;;;;6.53;83.22;99718.69;4973765;28;20106;-73
2022/03/15 07:40:01;;;;;;;9.98;4.72;;;;;;;6.52;82.28;99716.97;4997911;28;20100;-74
2022/03/15 07:42:26;;;;;;;8.68;4.53;;;;;;;6.57;80.78;99709.31;4979862;28;20093;-78
2022/03/15 07:44:52;;;;;;;10.40;4.32;;;;;;;6.64;81.17;99733.75;4998155;28;20401;-76
2022/03/15 07:47:17;;;;;;;9.52;4.57;;;;;;;6.56;81.55;99697.72;4988857;28;20046;-79
2022/03/15 07:49:43;;;;;;;9.57;4.93;;;;;;;6.99;79.29;99714.81;4983129;28;20113;-76
2022/03/15 07:52:09;;;;;;;10.55;4.93;;;;;;;7.18;79.64;99735.31;4987363;28;20386;-70
2022/03/15 07:54:35;;;;;;;10.77;5.80;;;;;;;7.15;79.77;99727.56;4983161;28;20030;-70
2022/03/15 07:57:02;;;;;;;13.50;6.57;;;;;;;7.16;79.82;99707.72;4973775;28;20056;-70
2022/03/15 07:59:28;;;;;;;9.30;4.78;;;;;;;7.16;78.14;99698.81;4991469;28;20045;-70
2022/03/15 08:01:53;;;;;;;7.65;4.18;;;;;;;7.18;78.14;99691.44;4994032;28;20022;-70
2022/03/15 08:04:19;;;;;;;9.30;4.47;;;;;;;7.57;75.77;99712.44;4988293;28;20034;-70
2022/03/15 08:06:44;;;;;;;9.40;4.65;;;;;;;7.86;75.22;99712.09;4995141;28;20056;-71
2022/03/15 08:09:10;;;;;;;13.23;4.82;;;;;;;7.97;76.18;99722.56;4978126;28;20022;-72
2022/03/15 08:11:35;;;;;;;9.77;4.65;;;;;;;8.17;74.24;99706.91;4993929;28;20030;-72
2022/03/15 08:14:01;;;;;;;9.18;4.47;;;;;;;8.44;73.21;99711.22;4989445;28;20065;-75
2022/03/15 08:16:27;;;;;;;18.05;5.35;;;;;;;8.48;71.50;99698.22;4990264;28;20033;-76
2022/03/15 08:18:53;;;;;;;8.77;4.82;;;;;;;8.73;72.53;99709.88;4989605;28;20030;-74
2022/03/15 08:21:19;;;;;;;8.30;4.22;;;;;;;9.04;70.94;99723.50;4991058;28;20038;-76
2022/03/15 08:23:45;;;;;;;10.13;4.75;;;;;;;9.25;70.63;99717.56;4977942;28;20446;-75
2022/03/15 08:26:10;;;;;;;8.07;4.68;;;;;;;8.86;71.57;99690.47;4977353;28;20026;-74
2022/03/15 08:28:36;;;;;;;7.57;4.25;;;;;;;9.13;71.23;99706.28;4982674;28;20022;-74
2022/03/15 08:31:01;;;;;;;7.82;4.30;;;;;;;9.29;71.25;99696.44;4974891;28;20027;-73
2022/03/15 08:33:27;;;;;;;17.63;6.80;;;;;;;9.30;71.63;99701.69;4981316;28;20108;-70
2022/03/15 08:35:52;;;;;;;7.57;4.40;;;;;;;9.44;70.97;99692.03;4987090;28;20038;-71
2022/03/15 08:38:18;;;;;;;9.18;4.50;;;;;;;9.59;69.69;99684.88;4988716;28;20023;-70
2022/03/15 08:40:44;;;;;;;7.68;4.15;;;;;;;9.92;69.21;99694.69;4971995;28;20103;-71
2022/03/15 08:43:10;;;;;;;7.18;4.22;;;;;;;9.98;68.23;99694.81;4988228;28;20412;-70
2022/03/15 08:45:36;;;;;;;7.90;4.13;;;;;;;10.11;68.29;99691.50;4975446;28;20109;-72
2022/03/15 08:48:02;;;;;;;13.60;4.80;;;;;;;10.13;68.15;99702.16;4977423;28;20222;-74
2022/03/15 08:50:28;;;;;;;8.07;4.00;;;;;;;10.45;67.63;99691.16;4956611;28;20050;-73
2022/03/15 08:52:55;;;;;;;10.02;3.90;;;;;;;10.74;66.76;99690.41;4982477;28;20057;-74
2022/03/15 08:55:21;;;;;;;9.25;4.95;;;;;;;10.82;66.84;99696.75;4992672;28;20026;-75
2022/03/15 08:57:47;;;;;;;10.85;4.85;;;;;;;10.87;63.19;99699.75;4993211;28;20026;-74
2022/03/15 09:00:13;;;;;;;12.10;4.18;;;;;;;10.96;64.16;99687.84;4992906;28;20025;-74
2022/03/15 09:02:38;;;;;;;10.10;4.85;;;;;;;11.00;62.77;99686.44;4992568;28;20375;-74
2022/03/15 09:05:04;;;;;;;6.65;4.00;;;;;;;11.16;62.86;99680.00;4975656;28;20022;-75
2022/03/15 09:07:32;;;;;;;10.77;4.57;;;;;;;11.57;61.55;99684.97;4991837;28;20105;-74
2022/03/15 09:09:58;;;;;;;8.55;4.10;;;;;;;11.50;60.63;99692.16;4976445;28;20023;-74
2022/03/15 09:12:23;;;;;;;9.10;4.15;;;;;;;11.31;61.69;99664.59;4992691;28;20413;-72
2022/03/15 09:14:49;;;;;;;8.07;4.00;;;;;;;11.44;60.83;99660.41;4971861;28;20025;-74
2022/03/15 09:17:15;;;;;;;8.52;3.80;;;;;;;11.37;58.74;99672.00;4986477;28;20030;-75
2022/03/15 09:19:42;;;;;;;9.98;3.92;;;;;;;11.56;58.25;99659.75;4987073;28;20039;-76
2022/03/15 09:22:08;;;;;;;11.60;4.07;;;;;;;11.28;58.31;99685.81;4992866;28;20018;-75
2022/03/15 09:24:36;;;;;;;10.15;4.07;;;;;;;11.44;58.58;99680.22;4990665;28;20036;-71
2022/03/15 09:27:02;;;;;;;9.05;4.45;;;;;;;11.27;58.83;99676.03;4992596;28;20409;-73
2022/03/15 09:29:28;;;;;;;9.00;3.42;;;;;;;11.09;57.48;99660.13;4996569;28;20033;-73
2022/03/15 09:31:53;;;;;;;9.55;3.97;;;;;;;11.18;58.27;99664.41;5004389;28;20022;-75
2022/03/15 09:34:21;;;;;;;11.38;3.47;;;;;;;11.29;57.72;99654.97;4986089;28;20117;-74
2022/03/15 09:36:46;;;;;;;10.75;3.40;;;;;;;11.46;56.50;99651.06;4972646;28;20397;-72
2022/03/15 09:39:11;;;;;;;8.00;3.30;;;;;;;11.77;56.38;99653.53;4990620;28;20030;-73
2022/03/15 09:41:38;;;;;;;7.57;3.33;;;;;;;11.48;56.37;99657.13;4991879;28;20029;-76
2022/03/15 09:44:06;;;;;;;7.57;3.65;;;;;;;11.37;57.78;99644.03;4968830;28;20378;-74
2022/03/15 09:46:36;;;;;;;9.98;3.50;;;;;;;11.51;57.37;99620.69;4992002;28;20023;-74
2022/03/15 09:49:01;;;;;;;8.35;3.45;;;;;;;11.63;56.72;99586.63;4986799;28;20116;-73
2022/03/15 09:51:32;;;;;;;9.55;3.40;;;;;;;11.55;56.72;99612.00;4981581;28;20042;-74
2022/03/15 09:53:58;;;;;;;10.32;3.30;;;;;;;11.54;56.93;99604.88;4986643;28;20026;-73
2022/03/15 09:56:24;;;;;;;10.13;3.65;;;;;;;11.28;58.44;99620.81;4986830;28;20085;-74
2022/03/15 09:58:50;;;;;;;7.93;3.38;;;;;;;11.06;58.59;99612.59;4992248;28;20010;-74
2022/03/15 10:01:18;;;;;;;5.55;3.17;;;;;;;11.06;58.85;99618.00;4988705;28;20030;-73
2022/03/15 10:03:45;;;;;;;14.15;3.33;;;;;;;10.74;60.77;99614.63;4972612;28;20381;-74
2022/03/15 10:06:12;;;;;;;9.52;4.07;;;;;;;10.49;60.62;99589.66;4987601;28;20034;-73
2022/03/15 10:08:37;;;;;;;15.77;3.65;;;;;;;10.48;61.46;99592.56;4986899;28;20482;-73
2022/03/15 10:11:02;;;;;;;9.50;4.38;;;;;;;10.49;61.15;99597.78;4985433;28;20037;-73
2022/03/15 10:13:28;;;;;;;12.52;4.18;;;;;;;10.81;60.67;99598.47;4995312;28;20377;-74
2022/03/15 10:15:57;;;;;;;10.40;3.35;;;;;;;10.37;62.04;99590.28;4993492;28;20026;-73
2022/03/15 10:18:22;;;;;;;9.63;4.10;;;;;;;10.43;61.65;99587.69;5073853;22;20045;-72
2022/03/15 10:20:48;;;;;;;11.68;3.50;;;;;;;10.49;61.36;99584.25;4993236;28;20026;-75
2022/03/15 10:23:16;;;;;;;7.43;4.15;;;;;;;10.38;62.34;99581.16;4986809;28;20032;-69
2022/03/15 10:25:45;;;;;;;14.25;4.13;;;;;;;10.20;63.33;99579.56;4987314;28;20039;-69
2022/03/15 10:28:12;;;;;;;9.50;3.72;;;;;;;10.30;62.73;99566.69;5000442;28;20029;-68
2022/03/15 10:30:38;;;;;;;10.07;3.83;;;;;;;10.20;63.06;99547.13;4989563;28;20039;-70
2022/03/15 10:33:05;;;;;;;7.15;3.50;;;;;;;10.31;62.93;99554.81;4991672;28;20085;-68
2022/03/15 10:35:36;;;;;;;10.02;3.85;;;;;;;9.97;64.59;99541.75;4997897;28;20029;-70
2022/03/15 10:38:03;;;;;;;10.02;3.72;;;;;;;9.85;65.27;99552.16;4998575;28;20093;-70
2022/03/15 10:40:44;;;;;;;9.57;3.70;;;;;;;10.13;64.78;99546.16;4998826;28;20041;-72
2022/03/15 10:43:10;;;;;;;14.27;3.67;;;;;;;10.20;66.28;99536.31;4996063;28;20023;-69
2022/03/15 10:45:40;;;;;;;8.23;4.00;;;;;;;10.47;63.31;99534.06;4979404;28;20390;-74
2022/03/15 10:48:19;;;;;;;;;;;;;;;10.62;62.35;99537.63;4994224;28;20061;-68
2022/03/15 10:51:10;;;;;;;9.50;3.40;;;;;;;10.74;61.50;99506.38;4979553;28;20410;-68
2022/03/15 10:53:40;;;;;;;9.45;3.35;;;;;;;11.24;61.10;99528.25;4982476;28;20053;-68
2022/03/15 10:56:14;;;;;;;9.68;3.47;;;;;;;11.33;59.82;99520.84;4991450;28;20026;-68
2022/03/15 10:58:48;;;;;;;5.82;2.85;;;;;;;11.33;59.24;99512.72;4994573;28;20503;-68
2022/03/15 11:01:16;;;;;;;10.88;3.30;;;;;;;11.19;60.97;99511.72;4996396;28;20026;-68
2022/03/15 11:04:01;;;;;;;7.60;3.20;;;;;;;11.21;60.02;99508.81;4990411;28;20520;-68
2022/03/15 11:06:31;;;;;;;6.95;2.75;;;;;;;11.23;59.71;99514.88;4995249;28;20070;-67
2022/03/15 11:08:58;;;;;;;7.50;2.90;;;;;;;11.02;60.74;99524.63;4989912;28;20031;-68
2022/03/15 11:11:27;;;;;;;8.73;2.95;;;;;;;11.07;62.07;99505.94;4996501;28;20026;-70
2022/03/15 11:14:06;;;;;;;11.05;2.60;;;;;;;10.88;63.49;99517.38;4994961;28;20038;-68
2022/03/15 11:16:36;;;;;;;7.40;2.80;;;;;;;11.14;63.63;99498.75;4974065;28;20037;-65
2022/03/15 11:19:03;;;;;;;7.57;2.70;;;;;;;11.16;63.43;99485.88;4999580;28;20035;-66
2022/03/15 11:21:34;;;;;;;6.65;2.83;;;;;;;10.88;64.86;99490.31;4996750;28;20023;-68
2022/03/15 11:24:00;;;;;;;9.50;3.20;;;;;;;11.05;65.62;99464.66;4988601;28;20034;-67
2022/03/15 11:26:30;;;;;;;7.68;3.22;;;;;;;10.92;65.51;99461.81;4994384;28;20030;-66
2022/03/15 11:28:56;;;;;;;4.43;2.60;;;;;;;10.67;66.13;99445.06;4995626;28;20037;-67
2022/03/15 11:31:23;;;;;;;8.43;2.83;;;;;;;10.50;66.07;99430.88;4992542;28;20100;-67